sensor_id;sensor_type;location;lat;lon;timestamp;temperature;humidity
22430;DHT22;11382;48.086;11.632;2022-10-16T00:01:05;12.80;99.90
22430;DHT22;11382;48.086;11.632;2022-10-16T00:03:34;12.80;99.90
22430;DHT22;11382;48.086;11.632;2022-10-16T00:06:02;12.70;99.90
22430;DHT22;11382;48.086;11.632;2022-10-16T00:08:32;12.70;99.90
22430;DHT22;11382;48.086;11.632;2022-10-16T00:11:01;12.70;99.90
22430;DHT22;11382;48.086;11.632;2022-10-16T00:13:30;12.70;99.90
22430;DHT22;11382;48.086;11.632;2022-10-16T00:16:00;12.70;99.90
22430;DHT22;11382;48.086;11.632;2022-10-16T00:18:29;12.80;99.90
22430;DHT22;11382;48.086;11.632;2022-10-16T00:21:02;12.80;99.90
22430;DHT22;11382;48.086;11.632;2022-10-16T00:23:32;12.80;99.90
22430;DHT22;11382;48.086;11.632;2022-10-16T00:26:03;12.70;99.90
22430;DHT22;11382;48.086;11.632;2022-10-16T00:28:32;12.70;99.90
22430;DHT22;11382;48.086;11.632;2022-10-16T00:31:05;12.70;99.90
22430;DHT22;11382;48.086;11.632;2022-10-16T00:33:33;12.70;99.90
22430;DHT22;11382;48.086;11.632;2022-10-16T00:36:03;12.60;99.90
22430;DHT22;11382;48.086;11.632;2022-10-16T00:38:33;12.60;99.90
22430;DHT22;11382;48.086;11.632;2022-10-16T00:41:01;12.50;99.90
22430;DHT22;11382;48.086;11.632;2022-10-16T00:43:36;12.50;99.90
22430;DHT22;11382;48.086;11.632;2022-10-16T00:46:09;12.40;99.90
22430;DHT22;11382;48.086;11.632;2022-10-16T00:48:38;12.40;99.90
22430;DHT22;11382;48.086;11.632;2022-10-16T00:51:07;12.50;99.90
22430;DHT22;11382;48.086;11.632;2022-10-16T00:53:37;12.40;99.90
22430;DHT22;11382;48.086;11.632;2022-10-16T00:56:05;12.40;99.90
22430;DHT22;11382;48.086;11.632;2022-10-16T00:58:33;12.30;99.90
22430;DHT22;11382;48.086;11.632;2022-10-16T01:01:02;12.20;99.90
22430;DHT22;11382;48.086;11.632;2022-10-16T01:03:32;12.20;99.90
22430;DHT22;11382;48.086;11.632;2022-10-16T01:06:11;12.20;99.90
22430;DHT22;11382;48.086;11.632;2022-10-16T01:08:54;12.20;99.90
22430;DHT22;11382;48.086;11.632;2022-10-16T01:11:28;12.20;99.90
22430;DHT22;11382;48.086;11.632;2022-10-16T01:14:02;12.20;99.90
22430;DHT22;11382;48.086;11.632;2022-10-16T01:16:38;12.20;99.90
22430;DHT22;11382;48.086;11.632;2022-10-16T01:19:12;12.30;99.90
22430;DHT22;11382;48.086;11.632;2022-10-16T01:21:43;12.30;99.90
22430;DHT22;11382;48.086;11.632;2022-10-16T01:24:18;12.30;99.90
22430;DHT22;11382;48.086;11.632;2022-10-16T01:27:05;12.20;99.90
22430;DHT22;11382;48.086;11.632;2022-10-16T01:29:36;12.20;99.90
22430;DHT22;11382;48.086;11.632;2022-10-16T01:32:08;12.30;99.90
22430;DHT22;11382;48.086;11.632;2022-10-16T01:34:42;12.30;99.90
22430;DHT22;11382;48.086;11.632;2022-10-16T01:37:15;12.20;99.90
22430;DHT22;11382;48.086;11.632;2022-10-16T01:39:46;12.20;99.90
22430;DHT22;11382;48.086;11.632;2022-10-16T01:42:20;12.10;99.90
22430;DHT22;11382;48.086;11.632;2022-10-16T01:44:50;12.20;99.90
22430;DHT22;11382;48.086;11.632;2022-10-16T01:47:22;12.20;99.90
22430;DHT22;11382;48.086;11.632;2022-10-16T01:49:52;12.20;99.90
22430;DHT22;11382;48.086;11.632;2022-10-16T01:52:23;12.20;99.90
22430;DHT22;11382;48.086;11.632;2022-10-16T01:54:55;12.10;99.90
22430;DHT22;11382;48.086;11.632;2022-10-16T01:57:26;12.10;99.90
22430;DHT22;11382;48.086;11.632;2022-10-16T02:00:00;12.10;99.90
22430;DHT22;11382;48.086;11.632;2022-10-16T02:02:38;12.10;99.90
22430;DHT22;11382;48.086;11.632;2022-10-16T02:05:10;11.90;99.90
22430;DHT22;11382;48.086;11.632;2022-10-16T02:07:40;11.90;99.90
22430;DHT22;11382;48.086;11.632;2022-10-16T02:10:09;12.00;99.90
22430;DHT22;11382;48.086;11.632;2022-10-16T02:12:42;11.90;99.90
22430;DHT22;11382;48.086;11.632;2022-10-16T02:15:12;11.90;99.90
22430;DHT22;11382;48.086;11.632;2022-10-16T02:17:40;11.80;99.90
22430;DHT22;11382;48.086;11.632;2022-10-16T02:20:09;11.80;99.90
22430;DHT22;11382;48.086;11.632;2022-10-16T02:22:40;11.90;99.90
22430;DHT22;11382;48.086;11.632;2022-10-16T02:25:15;11.90;99.90
22430;DHT22;11382;48.086;11.632;2022-10-16T02:27:52;12.00;99.90
22430;DHT22;11382;48.086;11.632;2022-10-16T02:30:25;12.00;99.90
22430;DHT22;11382;48.086;11.632;2022-10-16T02:32:55;11.90;99.90
22430;DHT22;11382;48.086;11.632;2022-10-16T02:35:24;11.90;99.90
22430;DHT22;11382;48.086;11.632;2022-10-16T02:37:54;11.90;99.90
22430;DHT22;11382;48.086;11.632;2022-10-16T02:40:23;11.90;99.90
22430;DHT22;11382;48.086;11.632;2022-10-16T02:42:54;11.90;99.90
22430;DHT22;11382;48.086;11.632;2022-10-16T02:45:23;11.90;99.90
22430;DHT22;11382;48.086;11.632;2022-10-16T02:47:51;11.90;99.90
22430;DHT22;11382;48.086;11.632;2022-10-16T02:50:19;12.00;99.90
22430;DHT22;11382;48.086;11.632;2022-10-16T02:52:48;12.00;99.90
22430;DHT22;11382;48.086;11.632;2022-10-16T02:55:16;12.00;99.90
22430;DHT22;11382;48.086;11.632;2022-10-16T02:57:44;12.00;99.90
22430;DHT22;11382;48.086;11.632;2022-10-16T03:00:16;12.00;99.90
22430;DHT22;11382;48.086;11.632;2022-10-16T03:02:44;12.00;99.90
22430;DHT22;11382;48.086;11.632;2022-10-16T03:05:13;12.00;99.90
22430;DHT22;11382;48.086;11.632;2022-10-16T03:07:41;11.90;99.90
22430;DHT22;11382;48.086;11.632;2022-10-16T03:10:12;11.90;99.90
22430;DHT22;11382;48.086;11.632;2022-10-16T03:12:40;11.90;99.90
22430;DHT22;11382;48.086;11.632;2022-10-16T03:15:09;11.80;99.90
22430;DHT22;11382;48.086;11.632;2022-10-16T03:17:39;11.80;99.90
22430;DHT22;11382;48.086;11.632;2022-10-16T03:20:07;11.80;99.90
22430;DHT22;11382;48.086;11.632;2022-10-16T03:22:35;11.80;99.90
22430;DHT22;11382;48.086;11.632;2022-10-16T03:25:04;11.80;99.90
22430;DHT22;11382;48.086;11.632;2022-10-16T03:27:32;11.80;99.90
22430;DHT22;11382;48.086;11.632;2022-10-16T03:30:00;11.90;99.90
22430;DHT22;11382;48.086;11.632;2022-10-16T03:32:28;11.90;99.90
22430;DHT22;11382;48.086;11.632;2022-10-16T03:34:58;11.90;99.90
22430;DHT22;11382;48.086;11.632;2022-10-16T03:37:26;11.80;99.90
22430;DHT22;11382;48.086;11.632;2022-10-16T03:39:54;11.80;99.90
22430;DHT22;11382;48.086;11.632;2022-10-16T03:42:22;11.80;99.90
22430;DHT22;11382;48.086;11.632;2022-10-16T03:44:51;11.70;99.90
22430;DHT22;11382;48.086;11.632;2022-10-16T03:47:19;11.70;99.90
22430;DHT22;11382;48.086;11.632;2022-10-16T03:49:48;11.70;99.90
22430;DHT22;11382;48.086;11.632;2022-10-16T03:52:18;11.80;99.90
22430;DHT22;11382;48.086;11.632;2022-10-16T03:54:46;11.80;99.90
22430;DHT22;11382;48.086;11.632;2022-10-16T03:57:14;11.90;99.90
22430;DHT22;11382;48.086;11.632;2022-10-16T03:59:42;11.90;99.90
22430;DHT22;11382;48.086;11.632;2022-10-16T04:02:10;11.90;99.90
22430;DHT22;11382;48.086;11.632;2022-10-16T04:04:38;11.90;99.90
22430;DHT22;11382;48.086;11.632;2022-10-16T04:07:06;11.90;99.90
22430;DHT22;11382;48.086;11.632;2022-10-16T04:09:35;12.00;99.90
22430;DHT22;11382;48.086;11.632;2022-10-16T04:12:03;12.10;99.90
22430;DHT22;11382;48.086;11.632;2022-10-16T04:14:31;12.10;99.90
22430;DHT22;11382;48.086;11.632;2022-10-16T04:16:59;12.10;99.90
22430;DHT22;11382;48.086;11.632;2022-10-16T04:19:27;12.20;99.90
22430;DHT22;11382;48.086;11.632;2022-10-16T04:21:55;12.20;99.90
22430;DHT22;11382;48.086;11.632;2022-10-16T04:24:23;12.20;99.90
22430;DHT22;11382;48.086;11.632;2022-10-16T04:26:53;12.20;99.90
22430;DHT22;11382;48.086;11.632;2022-10-16T04:29:21;12.30;99.90
22430;DHT22;11382;48.086;11.632;2022-10-16T04:31:49;12.40;99.90
22430;DHT22;11382;48.086;11.632;2022-10-16T04:34:17;12.50;99.90
22430;DHT22;11382;48.086;11.632;2022-10-16T04:36:47;12.50;99.90
22430;DHT22;11382;48.086;11.632;2022-10-16T04:39:16;12.50;99.90
22430;DHT22;11382;48.086;11.632;2022-10-16T04:41:44;12.40;99.90
22430;DHT22;11382;48.086;11.632;2022-10-16T04:44:13;12.30;99.90
22430;DHT22;11382;48.086;11.632;2022-10-16T04:46:41;12.30;99.90
22430;DHT22;11382;48.086;11.632;2022-10-16T04:49:09;12.30;99.90
22430;DHT22;11382;48.086;11.632;2022-10-16T04:51:37;12.40;99.90
22430;DHT22;11382;48.086;11.632;2022-10-16T04:54:05;12.40;99.90
22430;DHT22;11382;48.086;11.632;2022-10-16T04:56:33;12.30;99.90
22430;DHT22;11382;48.086;11.632;2022-10-16T04:59:06;12.30;99.90
22430;DHT22;11382;48.086;11.632;2022-10-16T05:01:35;12.30;99.90
22430;DHT22;11382;48.086;11.632;2022-10-16T05:04:03;12.40;99.90
22430;DHT22;11382;48.086;11.632;2022-10-16T05:06:32;12.40;99.90
22430;DHT22;11382;48.086;11.632;2022-10-16T05:09:00;12.40;99.90
22430;DHT22;11382;48.086;11.632;2022-10-16T05:11:28;12.50;99.90
22430;DHT22;11382;48.086;11.632;2022-10-16T05:13:56;12.40;99.90
22430;DHT22;11382;48.086;11.632;2022-10-16T05:16:24;12.50;99.90
22430;DHT22;11382;48.086;11.632;2022-10-16T05:18:53;12.50;99.90
22430;DHT22;11382;48.086;11.632;2022-10-16T05:21:30;12.50;99.90
22430;DHT22;11382;48.086;11.632;2022-10-16T05:23:58;12.50;99.90
22430;DHT22;11382;48.086;11.632;2022-10-16T05:26:26;12.60;99.90
22430;DHT22;11382;48.086;11.632;2022-10-16T05:28:54;12.60;99.90
22430;DHT22;11382;48.086;11.632;2022-10-16T05:31:22;12.60;99.90
22430;DHT22;11382;48.086;11.632;2022-10-16T05:33:50;12.70;99.90
22430;DHT22;11382;48.086;11.632;2022-10-16T05:36:20;12.80;99.90
22430;DHT22;11382;48.086;11.632;2022-10-16T05:38:50;12.70;99.90
22430;DHT22;11382;48.086;11.632;2022-10-16T05:41:38;12.80;99.90
22430;DHT22;11382;48.086;11.632;2022-10-16T05:44:06;12.80;99.90
22430;DHT22;11382;48.086;11.632;2022-10-16T05:46:34;12.90;99.90
22430;DHT22;11382;48.086;11.632;2022-10-16T05:49:02;12.90;99.90
22430;DHT22;11382;48.086;11.632;2022-10-16T05:51:32;13.00;99.90
22430;DHT22;11382;48.086;11.632;2022-10-16T05:54:00;13.10;99.90
22430;DHT22;11382;48.086;11.632;2022-10-16T05:56:28;13.20;99.90
22430;DHT22;11382;48.086;11.632;2022-10-16T05:58:56;13.20;99.90
22430;DHT22;11382;48.086;11.632;2022-10-16T06:01:24;13.20;99.90
22430;DHT22;11382;48.086;11.632;2022-10-16T06:03:52;13.30;99.90
22430;DHT22;11382;48.086;11.632;2022-10-16T06:06:21;13.30;99.90
22430;DHT22;11382;48.086;11.632;2022-10-16T06:08:52;13.30;99.90
22430;DHT22;11382;48.086;11.632;2022-10-16T06:11:24;13.40;99.90
22430;DHT22;11382;48.086;11.632;2022-10-16T06:13:53;13.40;99.90
22430;DHT22;11382;48.086;11.632;2022-10-16T06:16:23;13.50;99.90
22430;DHT22;11382;48.086;11.632;2022-10-16T06:18:52;13.60;99.90
22430;DHT22;11382;48.086;11.632;2022-10-16T06:21:22;13.70;99.90
22430;DHT22;11382;48.086;11.632;2022-10-16T06:23:53;13.80;99.90
22430;DHT22;11382;48.086;11.632;2022-10-16T06:26:24;13.80;99.90
22430;DHT22;11382;48.086;11.632;2022-10-16T06:28:54;13.70;99.90
22430;DHT22;11382;48.086;11.632;2022-10-16T06:31:22;13.80;99.90
22430;DHT22;11382;48.086;11.632;2022-10-16T06:33:54;13.80;99.90
22430;DHT22;11382;48.086;11.632;2022-10-16T06:36:23;13.80;99.90
22430;DHT22;11382;48.086;11.632;2022-10-16T06:38:53;14.00;99.90
22430;DHT22;11382;48.086;11.632;2022-10-16T06:41:22;14.10;99.90
22430;DHT22;11382;48.086;11.632;2022-10-16T06:43:51;14.10;99.90
22430;DHT22;11382;48.086;11.632;2022-10-16T06:46:22;14.20;99.90
22430;DHT22;11382;48.086;11.632;2022-10-16T06:48:50;14.30;99.90
22430;DHT22;11382;48.086;11.632;2022-10-16T06:51:19;14.50;99.90
22430;DHT22;11382;48.086;11.632;2022-10-16T06:53:50;14.50;99.90
22430;DHT22;11382;48.086;11.632;2022-10-16T06:56:35;14.60;99.90
22430;DHT22;11382;48.086;11.632;2022-10-16T06:59:04;14.70;99.90
22430;DHT22;11382;48.086;11.632;2022-10-16T07:01:32;14.60;99.90
22430;DHT22;11382;48.086;11.632;2022-10-16T07:04:02;14.70;99.90
22430;DHT22;11382;48.086;11.632;2022-10-16T07:06:32;14.90;99.90
22430;DHT22;11382;48.086;11.632;2022-10-16T07:09:03;15.00;99.90
22430;DHT22;11382;48.086;11.632;2022-10-16T07:11:32;15.10;99.90
22430;DHT22;11382;48.086;11.632;2022-10-16T07:14:01;15.20;99.90
22430;DHT22;11382;48.086;11.632;2022-10-16T07:16:31;15.40;99.90
22430;DHT22;11382;48.086;11.632;2022-10-16T07:19:00;15.70;99.90
22430;DHT22;11382;48.086;11.632;2022-10-16T07:21:31;16.30;99.90
22430;DHT22;11382;48.086;11.632;2022-10-16T07:24:02;16.70;99.90
22430;DHT22;11382;48.086;11.632;2022-10-16T07:26:33;17.60;99.90
22430;DHT22;11382;48.086;11.632;2022-10-16T07:29:03;18.80;99.90
22430;DHT22;11382;48.086;11.632;2022-10-16T07:31:31;19.60;99.90
22430;DHT22;11382;48.086;11.632;2022-10-16T07:34:00;20.30;99.90
22430;DHT22;11382;48.086;11.632;2022-10-16T07:36:28;20.80;99.90
22430;DHT22;11382;48.086;11.632;2022-10-16T07:38:56;21.70;99.90
22430;DHT22;11382;48.086;11.632;2022-10-16T07:41:26;22.50;99.90
22430;DHT22;11382;48.086;11.632;2022-10-16T07:43:55;22.60;99.90
22430;DHT22;11382;48.086;11.632;2022-10-16T07:46:28;22.90;99.90
22430;DHT22;11382;48.086;11.632;2022-10-16T07:48:56;23.70;99.90
22430;DHT22;11382;48.086;11.632;2022-10-16T07:51:25;24.40;99.90
22430;DHT22;11382;48.086;11.632;2022-10-16T07:53:54;25.00;99.90
22430;DHT22;11382;48.086;11.632;2022-10-16T07:56:22;24.90;99.90
22430;DHT22;11382;48.086;11.632;2022-10-16T07:58:51;25.40;99.90
22430;DHT22;11382;48.086;11.632;2022-10-16T08:01:20;26.50;99.90
22430;DHT22;11382;48.086;11.632;2022-10-16T08:03:51;27.20;99.80
22430;DHT22;11382;48.086;11.632;2022-10-16T08:06:21;27.80;98.20
22430;DHT22;11382;48.086;11.632;2022-10-16T08:08:54;27.70;97.60
22430;DHT22;11382;48.086;11.632;2022-10-16T08:11:22;27.10;97.80
22430;DHT22;11382;48.086;11.632;2022-10-16T08:13:50;27.30;97.80
22430;DHT22;11382;48.086;11.632;2022-10-16T08:16:19;27.70;96.90
22430;DHT22;11382;48.086;11.632;2022-10-16T08:18:47;28.00;96.00
22430;DHT22;11382;48.086;11.632;2022-10-16T08:21:17;28.40;94.50
22430;DHT22;11382;48.086;11.632;2022-10-16T08:23:48;28.40;95.10
22430;DHT22;11382;48.086;11.632;2022-10-16T08:26:24;29.50;93.40
22430;DHT22;11382;48.086;11.632;2022-10-16T08:28:52;29.90;91.70
22430;DHT22;11382;48.086;11.632;2022-10-16T08:31:21;30.80;91.00
22430;DHT22;11382;48.086;11.632;2022-10-16T08:33:49;30.80;89.10
22430;DHT22;11382;48.086;11.632;2022-10-16T08:36:20;30.20;88.60
22430;DHT22;11382;48.086;11.632;2022-10-16T08:38:49;29.20;89.40
22430;DHT22;11382;48.086;11.632;2022-10-16T08:44:35;29.70;87.00
22430;DHT22;11382;48.086;11.632;2022-10-16T08:47:13;30.20;85.50
22430;DHT22;11382;48.086;11.632;2022-10-16T08:49:54;29.80;85.90
22430;DHT22;11382;48.086;11.632;2022-10-16T08:52:28;30.00;84.40
22430;DHT22;11382;48.086;11.632;2022-10-16T08:54:57;30.60;85.30
22430;DHT22;11382;48.086;11.632;2022-10-16T08:57:26;31.10;82.90
22430;DHT22;11382;48.086;11.632;2022-10-16T08:59:55;31.40;82.50
22430;DHT22;11382;48.086;11.632;2022-10-16T09:02:31;31.60;81.00
22430;DHT22;11382;48.086;11.632;2022-10-16T09:05:15;31.20;81.00
22430;DHT22;11382;48.086;11.632;2022-10-16T09:07:52;31.30;82.10
22430;DHT22;11382;48.086;11.632;2022-10-16T09:10:30;31.40;80.00
22430;DHT22;11382;48.086;11.632;2022-10-16T09:13:11;31.40;80.90
22430;DHT22;11382;48.086;11.632;2022-10-16T09:15:45;31.90;79.30
22430;DHT22;11382;48.086;11.632;2022-10-16T09:18:18;31.10;77.60
22430;DHT22;11382;48.086;11.632;2022-10-16T09:20:50;30.60;81.00
22430;DHT22;11382;48.086;11.632;2022-10-16T09:23:25;30.50;79.20
22430;DHT22;11382;48.086;11.632;2022-10-16T09:25:55;30.10;80.30
22430;DHT22;11382;48.086;11.632;2022-10-16T09:28:23;29.90;81.40
22430;DHT22;11382;48.086;11.632;2022-10-16T09:30:51;30.20;80.70
22430;DHT22;11382;48.086;11.632;2022-10-16T09:33:23;30.70;78.60
22430;DHT22;11382;48.086;11.632;2022-10-16T09:35:53;30.60;80.40
22430;DHT22;11382;48.086;11.632;2022-10-16T09:38:26;30.60;77.30
22430;DHT22;11382;48.086;11.632;2022-10-16T09:40:55;30.10;77.60
22430;DHT22;11382;48.086;11.632;2022-10-16T09:43:34;29.90;80.00
22430;DHT22;11382;48.086;11.632;2022-10-16T09:46:05;30.40;78.00
22430;DHT22;11382;48.086;11.632;2022-10-16T09:48:37;30.50;76.80
22430;DHT22;11382;48.086;11.632;2022-10-16T09:51:15;30.70;75.80
22430;DHT22;11382;48.086;11.632;2022-10-16T09:53:46;29.90;79.80
22430;DHT22;11382;48.086;11.632;2022-10-16T09:56:22;30.30;79.30
22430;DHT22;11382;48.086;11.632;2022-10-16T09:58:50;31.60;78.00
22430;DHT22;11382;48.086;11.632;2022-10-16T10:01:19;31.10;74.90
22430;DHT22;11382;48.086;11.632;2022-10-16T10:03:48;31.30;74.90
22430;DHT22;11382;48.086;11.632;2022-10-16T10:06:25;30.80;76.30
22430;DHT22;11382;48.086;11.632;2022-10-16T10:09:04;31.20;75.00
22430;DHT22;11382;48.086;11.632;2022-10-16T10:14:25;32.20;72.60
22430;DHT22;11382;48.086;11.632;2022-10-16T10:17:13;32.80;74.50
22430;DHT22;11382;48.086;11.632;2022-10-16T10:19:46;33.00;72.20
22430;DHT22;11382;48.086;11.632;2022-10-16T10:25:18;32.20;70.40
22430;DHT22;11382;48.086;11.632;2022-10-16T10:30:54;32.00;70.00
22430;DHT22;11382;48.086;11.632;2022-10-16T10:33:29;31.60;70.50
22430;DHT22;11382;48.086;11.632;2022-10-16T10:36:08;32.10;69.30
22430;DHT22;11382;48.086;11.632;2022-10-16T10:38:47;32.10;68.10
22430;DHT22;11382;48.086;11.632;2022-10-16T10:41:40;32.20;67.90
22430;DHT22;11382;48.086;11.632;2022-10-16T10:44:24;32.20;69.40
22430;DHT22;11382;48.086;11.632;2022-10-16T10:46:57;32.50;68.20
22430;DHT22;11382;48.086;11.632;2022-10-16T10:49:35;32.30;66.00
22430;DHT22;11382;48.086;11.632;2022-10-16T10:52:15;32.80;66.90
22430;DHT22;11382;48.086;11.632;2022-10-16T10:54:51;33.00;62.70
22430;DHT22;11382;48.086;11.632;2022-10-16T10:57:30;32.40;66.20
22430;DHT22;11382;48.086;11.632;2022-10-16T11:00:09;32.40;66.70
22430;DHT22;11382;48.086;11.632;2022-10-16T11:02:48;32.70;65.90
22430;DHT22;11382;48.086;11.632;2022-10-16T11:05:40;33.50;65.40
22430;DHT22;11382;48.086;11.632;2022-10-16T11:08:15;33.70;64.10
22430;DHT22;11382;48.086;11.632;2022-10-16T11:10:52;34.50;60.40
22430;DHT22;11382;48.086;11.632;2022-10-16T11:13:30;33.70;62.10
22430;DHT22;11382;48.086;11.632;2022-10-16T11:16:03;33.00;61.60
22430;DHT22;11382;48.086;11.632;2022-10-16T11:18:43;32.40;62.80
22430;DHT22;11382;48.086;11.632;2022-10-16T11:21:16;32.10;60.60
22430;DHT22;11382;48.086;11.632;2022-10-16T11:23:51;32.30;64.00
22430;DHT22;11382;48.086;11.632;2022-10-16T11:26:22;32.60;64.20
22430;DHT22;11382;48.086;11.632;2022-10-16T11:28:54;32.80;62.40
22430;DHT22;11382;48.086;11.632;2022-10-16T11:31:28;32.60;60.90
22430;DHT22;11382;48.086;11.632;2022-10-16T11:34:02;32.80;59.90
22430;DHT22;11382;48.086;11.632;2022-10-16T11:36:36;32.50;60.00
22430;DHT22;11382;48.086;11.632;2022-10-16T11:39:11;32.60;59.00
22430;DHT22;11382;48.086;11.632;2022-10-16T11:41:49;33.10;60.50
22430;DHT22;11382;48.086;11.632;2022-10-16T11:44:34;32.00;61.80
22430;DHT22;11382;48.086;11.632;2022-10-16T11:47:13;30.50;61.80
22430;DHT22;11382;48.086;11.632;2022-10-16T11:50:12;29.80;66.20
22430;DHT22;11382;48.086;11.632;2022-10-16T11:52:46;28.90;66.80
22430;DHT22;11382;48.086;11.632;2022-10-16T11:55:17;28.00;70.10
22430;DHT22;11382;48.086;11.632;2022-10-16T11:57:50;27.60;70.40
22430;DHT22;11382;48.086;11.632;2022-10-16T12:00:24;27.40;71.70
22430;DHT22;11382;48.086;11.632;2022-10-16T12:03:02;27.00;69.80
22430;DHT22;11382;48.086;11.632;2022-10-16T12:05:37;26.70;70.30
22430;DHT22;11382;48.086;11.632;2022-10-16T12:08:13;26.60;73.00
22430;DHT22;11382;48.086;11.632;2022-10-16T12:10:44;26.40;72.20
22430;DHT22;11382;48.086;11.632;2022-10-16T12:13:30;26.40;74.70
22430;DHT22;11382;48.086;11.632;2022-10-16T12:16:21;26.40;73.40
22430;DHT22;11382;48.086;11.632;2022-10-16T12:19:02;26.40;72.90
22430;DHT22;11382;48.086;11.632;2022-10-16T12:21:31;26.50;74.40
22430;DHT22;11382;48.086;11.632;2022-10-16T12:24:00;26.50;74.60
22430;DHT22;11382;48.086;11.632;2022-10-16T12:26:32;26.40;74.10
22430;DHT22;11382;48.086;11.632;2022-10-16T12:29:13;26.50;75.10
22430;DHT22;11382;48.086;11.632;2022-10-16T12:31:46;26.50;72.40
22430;DHT22;11382;48.086;11.632;2022-10-16T12:34:27;25.80;70.80
22430;DHT22;11382;48.086;11.632;2022-10-16T12:37:08;26.10;74.20
22430;DHT22;11382;48.086;11.632;2022-10-16T12:39:37;26.30;73.20
22430;DHT22;11382;48.086;11.632;2022-10-16T12:42:19;26.50;76.40
22430;DHT22;11382;48.086;11.632;2022-10-16T12:44:47;26.60;73.60
22430;DHT22;11382;48.086;11.632;2022-10-16T12:47:35;26.40;73.00
22430;DHT22;11382;48.086;11.632;2022-10-16T12:50:21;26.30;75.60
22430;DHT22;11382;48.086;11.632;2022-10-16T12:52:50;26.20;75.60
22430;DHT22;11382;48.086;11.632;2022-10-16T12:55:20;26.20;75.40
22430;DHT22;11382;48.086;11.632;2022-10-16T12:58:22;26.20;74.60
22430;DHT22;11382;48.086;11.632;2022-10-16T13:00:57;26.10;74.90
22430;DHT22;11382;48.086;11.632;2022-10-16T13:04:02;26.00;77.20
22430;DHT22;11382;48.086;11.632;2022-10-16T13:06:38;26.00;74.70
22430;DHT22;11382;48.086;11.632;2022-10-16T13:09:37;26.00;77.40
22430;DHT22;11382;48.086;11.632;2022-10-16T13:12:25;25.90;74.40
22430;DHT22;11382;48.086;11.632;2022-10-16T13:18:01;25.80;75.40
22430;DHT22;11382;48.086;11.632;2022-10-16T13:20:35;25.80;77.10
22430;DHT22;11382;48.086;11.632;2022-10-16T13:23:13;25.80;77.40
22430;DHT22;11382;48.086;11.632;2022-10-16T13:25:54;25.80;76.60
22430;DHT22;11382;48.086;11.632;2022-10-16T13:28:28;25.80;75.80
22430;DHT22;11382;48.086;11.632;2022-10-16T13:30:59;25.80;75.90
22430;DHT22;11382;48.086;11.632;2022-10-16T13:33:32;25.80;75.60
22430;DHT22;11382;48.086;11.632;2022-10-16T13:36:03;25.70;76.90
22430;DHT22;11382;48.086;11.632;2022-10-16T13:38:33;25.50;75.30
22430;DHT22;11382;48.086;11.632;2022-10-16T13:41:03;25.60;75.20
22430;DHT22;11382;48.086;11.632;2022-10-16T13:43:34;25.50;73.00
22430;DHT22;11382;48.086;11.632;2022-10-16T13:46:04;25.40;77.00
22430;DHT22;11382;48.086;11.632;2022-10-16T13:48:34;25.50;77.30
22430;DHT22;11382;48.086;11.632;2022-10-16T13:51:06;25.60;77.90
22430;DHT22;11382;48.086;11.632;2022-10-16T13:53:35;25.50;79.10
22430;DHT22;11382;48.086;11.632;2022-10-16T13:56:05;25.50;77.00
22430;DHT22;11382;48.086;11.632;2022-10-16T13:58:34;25.40;74.30
22430;DHT22;11382;48.086;11.632;2022-10-16T14:01:04;25.00;76.20
22430;DHT22;11382;48.086;11.632;2022-10-16T14:03:34;25.20;78.40
22430;DHT22;11382;48.086;11.632;2022-10-16T14:06:06;25.10;75.70
22430;DHT22;11382;48.086;11.632;2022-10-16T14:08:42;25.20;77.60
22430;DHT22;11382;48.086;11.632;2022-10-16T14:11:11;25.10;74.40
22430;DHT22;11382;48.086;11.632;2022-10-16T14:13:43;25.10;73.50
22430;DHT22;11382;48.086;11.632;2022-10-16T14:16:17;25.00;73.60
22430;DHT22;11382;48.086;11.632;2022-10-16T14:18:49;25.10;76.70
22430;DHT22;11382;48.086;11.632;2022-10-16T14:21:22;25.00;74.30
22430;DHT22;11382;48.086;11.632;2022-10-16T14:23:50;25.00;74.40
22430;DHT22;11382;48.086;11.632;2022-10-16T14:26:20;24.90;74.60
22430;DHT22;11382;48.086;11.632;2022-10-16T14:29:00;24.90;74.90
22430;DHT22;11382;48.086;11.632;2022-10-16T14:31:31;24.80;73.80
22430;DHT22;11382;48.086;11.632;2022-10-16T14:34:00;24.90;78.00
22430;DHT22;11382;48.086;11.632;2022-10-16T14:36:29;24.90;77.20
22430;DHT22;11382;48.086;11.632;2022-10-16T14:39:00;24.70;73.50
22430;DHT22;11382;48.086;11.632;2022-10-16T14:41:30;24.70;75.20
22430;DHT22;11382;48.086;11.632;2022-10-16T14:44:02;24.70;76.00
22430;DHT22;11382;48.086;11.632;2022-10-16T14:46:33;24.70;76.60
22430;DHT22;11382;48.086;11.632;2022-10-16T14:49:12;24.80;77.60
22430;DHT22;11382;48.086;11.632;2022-10-16T14:51:42;24.60;74.70
22430;DHT22;11382;48.086;11.632;2022-10-16T14:54:13;24.50;75.00
22430;DHT22;11382;48.086;11.632;2022-10-16T14:56:45;24.40;75.80
22430;DHT22;11382;48.086;11.632;2022-10-16T14:59:16;24.50;76.00
22430;DHT22;11382;48.086;11.632;2022-10-16T15:01:45;24.20;75.70
22430;DHT22;11382;48.086;11.632;2022-10-16T15:04:14;24.00;75.40
22430;DHT22;11382;48.086;11.632;2022-10-16T15:06:44;24.00;75.50
22430;DHT22;11382;48.086;11.632;2022-10-16T15:09:12;23.90;75.50
22430;DHT22;11382;48.086;11.632;2022-10-16T15:11:41;23.70;76.30
22430;DHT22;11382;48.086;11.632;2022-10-16T15:14:12;23.80;76.20
22430;DHT22;11382;48.086;11.632;2022-10-16T15:16:45;23.80;76.00
22430;DHT22;11382;48.086;11.632;2022-10-16T15:19:13;23.70;76.70
22430;DHT22;11382;48.086;11.632;2022-10-16T15:21:41;23.60;76.90
22430;DHT22;11382;48.086;11.632;2022-10-16T15:24:12;23.50;76.70
22430;DHT22;11382;48.086;11.632;2022-10-16T15:26:46;23.50;78.80
22430;DHT22;11382;48.086;11.632;2022-10-16T15:29:15;23.30;80.00
22430;DHT22;11382;48.086;11.632;2022-10-16T15:31:43;23.20;80.50
22430;DHT22;11382;48.086;11.632;2022-10-16T15:34:14;23.20;81.00
22430;DHT22;11382;48.086;11.632;2022-10-16T15:36:42;23.20;81.20
22430;DHT22;11382;48.086;11.632;2022-10-16T15:39:13;23.10;81.40
22430;DHT22;11382;48.086;11.632;2022-10-16T15:41:42;22.90;82.70
22430;DHT22;11382;48.086;11.632;2022-10-16T15:44:10;22.80;83.20
22430;DHT22;11382;48.086;11.632;2022-10-16T15:46:39;22.70;84.20
22430;DHT22;11382;48.086;11.632;2022-10-16T15:49:08;22.60;84.40
22430;DHT22;11382;48.086;11.632;2022-10-16T15:51:38;22.50;85.10
22430;DHT22;11382;48.086;11.632;2022-10-16T15:54:07;22.40;85.90
22430;DHT22;11382;48.086;11.632;2022-10-16T15:56:37;22.30;86.20
22430;DHT22;11382;48.086;11.632;2022-10-16T15:59:05;22.20;86.90